createdAt,value
2022-11-26T00:02:03.985Z,91
2022-11-26T00:05:29.147Z,91
2022-11-26T00:08:54.353Z,91
2022-11-26T00:12:19.576Z,92
2022-11-26T00:15:44.741Z,92
2022-11-26T00:19:09.958Z,92
2022-11-26T00:22:35.142Z,92
2022-11-26T00:26:00.338Z,92
2022-11-26T00:29:25.560Z,92
2022-11-26T00:32:50.728Z,92
2022-11-26T00:36:15.918Z,91
2022-11-26T00:39:41.118Z,91
2022-11-26T00:43:06.347Z,92
2022-11-26T00:46:31.561Z,92
2022-11-26T00:49:56.756Z,92
2022-11-26T00:53:21.941Z,92
2022-11-26T00:56:47.136Z,92
2022-11-26T01:00:12.342Z,92
2022-11-26T01:03:37.571Z,92
2022-11-26T01:07:02.743Z,92
2022-11-26T01:10:27.935Z,92
2022-11-26T01:13:53.130Z,92
2022-11-26T01:17:18.331Z,92
2022-11-26T01:20:43.567Z,92
2022-11-26T01:24:08.761Z,92
2022-11-26T01:27:33.961Z,92
2022-11-26T01:30:59.171Z,92
2022-11-26T01:34:24.378Z,92
2022-11-26T01:37:49.602Z,92
2022-11-26T01:41:14.762Z,92
2022-11-26T01:44:40.211Z,92
2022-11-26T01:48:05.205Z,92
2022-11-26T01:51:30.410Z,92
2022-11-26T01:54:55.654Z,92
2022-11-26T01:58:20.854Z,92
2022-11-26T02:01:46.215Z,92
2022-11-26T02:05:11.252Z,92
2022-11-26T02:08:36.482Z,92
2022-11-26T02:12:01.705Z,92
2022-11-26T02:15:26.899Z,92
2022-11-26T02:18:52.091Z,92
2022-11-26T02:22:17.289Z,92
2022-11-26T02:25:42.508Z,92
2022-11-26T02:29:07.744Z,92
2022-11-26T02:32:32.920Z,92
2022-11-26T02:35:58.132Z,92
2022-11-26T02:39:23.345Z,92
2022-11-26T02:42:48.587Z,92
2022-11-26T02:46:13.833Z,92
2022-11-26T02:49:39.018Z,93
2022-11-26T02:53:04.216Z,92
2022-11-26T02:56:29.401Z,92
2022-11-26T02:59:54.606Z,92
2022-11-26T03:03:19.825Z,92
2022-11-26T03:06:45.006Z,92
2022-11-26T03:10:10.206Z,92
2022-11-26T03:13:35.402Z,92
2022-11-26T03:17:00.617Z,92
2022-11-26T03:20:25.856Z,93
2022-11-26T03:23:51.021Z,92
2022-11-26T03:27:16.223Z,92
2022-11-26T03:30:41.421Z,92
2022-11-26T03:34:06.638Z,92
2022-11-26T03:37:31.855Z,92
2022-11-26T03:40:57.043Z,92
2022-11-26T03:44:22.241Z,93
2022-11-26T03:47:47.441Z,93
2022-11-26T03:51:12.653Z,93
2022-11-26T03:54:38.113Z,92
2022-11-26T03:58:03.083Z,93
2022-11-26T04:01:28.352Z,93
2022-11-26T04:04:53.509Z,93
2022-11-26T04:08:18.719Z,93
2022-11-26T04:11:43.953Z,93
2022-11-26T04:15:09.130Z,93
2022-11-26T04:18:34.324Z,93
2022-11-26T04:21:59.521Z,93
2022-11-26T04:25:24.735Z,93
2022-11-26T04:28:49.973Z,92
2022-11-26T04:32:15.130Z,93
2022-11-26T04:35:40.359Z,93
2022-11-26T04:39:05.550Z,93
2022-11-26T04:42:30.752Z,93
2022-11-26T04:45:56.041Z,93
2022-11-26T04:49:21.145Z,93
2022-11-26T04:52:46.349Z,93
2022-11-26T04:56:11.554Z,93
2022-11-26T04:59:36.749Z,93
2022-11-26T05:03:02.059Z,92
2022-11-26T05:06:27.159Z,92
2022-11-26T05:09:52.370Z,92
2022-11-26T05:13:17.563Z,92
2022-11-26T05:16:42.824Z,92
2022-11-26T05:20:08.005Z,93
2022-11-26T05:23:33.185Z,93
2022-11-26T05:26:58.370Z,93
2022-11-26T05:30:23.576Z,93
2022-11-26T05:33:48.782Z,92
2022-11-26T05:37:14.004Z,93
2022-11-26T05:40:39.182Z,93
2022-11-26T05:44:04.377Z,93
2022-11-26T05:47:29.575Z,92
2022-11-26T05:50:54.773Z,92
2022-11-26T05:54:20.009Z,93
2022-11-26T05:57:45.186Z,93
2022-11-26T06:01:10.395Z,93
2022-11-26T06:04:35.601Z,92
2022-11-26T06:08:00.825Z,92
2022-11-26T06:11:26.016Z,92
2022-11-26T06:14:51.191Z,92
2022-11-26T06:18:16.378Z,92
2022-11-26T06:21:41.589Z,92
2022-11-26T06:25:06.782Z,92
2022-11-26T06:28:32.007Z,92
2022-11-26T06:31:57.274Z,92
2022-11-26T06:35:22.401Z,92
2022-11-26T06:38:47.599Z,92
2022-11-26T06:42:12.812Z,92
2022-11-26T06:45:38.098Z,91
2022-11-26T06:49:03.231Z,91
2022-11-26T06:52:28.415Z,91
2022-11-26T06:55:53.610Z,91
2022-11-26T06:59:18.815Z,92
2022-11-26T07:02:44.074Z,92
2022-11-26T07:06:09.206Z,92
2022-11-26T07:09:34.424Z,92
2022-11-26T07:12:59.639Z,92
2022-11-26T07:16:24.911Z,92
2022-11-26T07:19:50.074Z,92
2022-11-26T07:23:15.266Z,92
2022-11-26T07:26:40.474Z,92
2022-11-26T07:30:05.680Z,92
2022-11-26T07:33:30.889Z,92
2022-11-26T07:36:58.118Z,93
2022-11-26T07:40:21.384Z,93
2022-11-26T07:43:46.598Z,93
2022-11-26T07:47:11.836Z,93
2022-11-26T07:50:37.055Z,93
2022-11-26T07:54:02.317Z,93
2022-11-26T07:57:27.501Z,93
2022-11-26T08:00:54.739Z,93
2022-11-26T08:04:18.039Z,92
2022-11-26T08:07:43.264Z,92
2022-11-26T08:11:08.488Z,92
2022-11-26T08:14:33.703Z,92
2022-11-26T08:17:58.948Z,92
2022-11-26T08:21:24.183Z,92
2022-11-26T08:24:49.418Z,92
2022-11-26T08:28:14.671Z,92
2022-11-26T08:31:43.837Z,93
2022-11-26T08:35:05.167Z,93
2022-11-26T08:38:30.453Z,92
2022-11-26T08:41:55.712Z,91
2022-11-26T08:45:20.950Z,91
2022-11-26T08:48:46.147Z,92
2022-11-26T08:52:11.466Z,92
2022-11-26T08:55:59.081Z,91
2022-11-26T08:59:01.923Z,91
2022-11-26T09:02:27.184Z,91
2022-11-26T09:05:52.359Z,91
2022-11-26T09:09:17.908Z,91
2022-11-26T09:12:42.965Z,92
2022-11-26T09:16:08.190Z,92
2022-11-26T09:19:33.421Z,92
2022-11-26T09:22:58.628Z,91
2022-11-26T09:26:23.859Z,91
2022-11-26T09:29:49.149Z,90
2022-11-26T09:33:14.390Z,89
2022-11-26T09:36:39.671Z,89
2022-11-26T09:40:04.868Z,89
2022-11-26T09:43:30.102Z,88
2022-11-26T09:47:11.404Z,89
2022-11-26T09:50:20.552Z,88
2022-11-26T09:53:45.815Z,88
2022-11-26T09:57:10.992Z,88
2022-11-26T10:00:36.201Z,88
2022-11-26T10:04:01.427Z,88
2022-11-26T10:07:26.667Z,89
2022-11-26T10:10:51.955Z,89
2022-11-26T10:14:17.152Z,89
2022-11-26T10:17:42.354Z,90
2022-11-26T10:21:07.568Z,90
2022-11-26T10:24:32.774Z,91
2022-11-26T10:27:57.984Z,90
2022-11-26T10:31:23.265Z,90
2022-11-26T10:34:48.367Z,91
2022-11-26T10:38:13.578Z,90
2022-11-26T10:41:38.893Z,89
2022-11-26T10:45:06.145Z,89
2022-11-26T10:48:29.310Z,90
2022-11-26T10:51:54.507Z,91
2022-11-26T10:55:19.791Z,90
2022-11-26T10:58:45.015Z,89
2022-11-26T11:02:10.266Z,89
2022-11-26T11:05:35.415Z,89
2022-11-26T11:09:00.628Z,89
2022-11-26T11:12:25.880Z,90
2022-11-26T11:15:51.106Z,89
2022-11-26T11:19:16.383Z,89
2022-11-26T11:22:41.550Z,89
2022-11-26T11:26:06.785Z,89
2022-11-26T11:29:32.027Z,89
2022-11-26T11:32:57.284Z,87
2022-11-26T11:36:22.514Z,88
2022-11-26T11:39:47.715Z,88
2022-11-26T11:43:12.946Z,87
2022-11-26T11:46:38.178Z,86
2022-11-26T11:50:03.402Z,86
2022-11-26T11:53:28.674Z,84
2022-11-26T11:56:53.863Z,83
2022-11-26T12:00:19.070Z,84
2022-11-26T12:03:44.306Z,85
2022-11-26T12:07:09.534Z,85
2022-11-26T12:10:35.670Z,84
2022-11-26T12:13:59.978Z,84
2022-11-26T12:17:28.967Z,83
2022-11-26T12:20:50.420Z,84
2022-11-26T12:24:15.658Z,83
2022-11-26T12:27:40.891Z,83
2022-11-26T12:31:06.086Z,83
2022-11-26T12:34:31.311Z,83
2022-11-26T12:37:56.504Z,82
2022-11-26T12:41:21.779Z,83
2022-11-26T12:44:47.076Z,81
2022-11-26T12:48:12.275Z,82
2022-11-26T12:51:37.488Z,82
2022-11-26T12:55:02.698Z,81
2022-11-26T12:58:27.912Z,81
2022-11-26T13:01:53.224Z,81
2022-11-26T13:05:18.375Z,82
2022-11-26T13:08:43.582Z,80
2022-11-26T13:12:08.808Z,79
2022-11-26T13:15:34.018Z,80
2022-11-26T13:19:02.736Z,80
2022-11-26T13:22:24.471Z,79
2022-11-26T13:25:49.707Z,80
2022-11-26T13:29:14.971Z,80
2022-11-26T13:32:40.192Z,80
2022-11-26T13:36:05.461Z,79
2022-11-26T13:39:30.681Z,80
2022-11-26T13:42:55.896Z,80
2022-11-26T13:46:22.460Z,81
2022-11-26T13:49:46.365Z,81
2022-11-26T13:53:11.630Z,81
2022-11-26T13:56:36.819Z,81
2022-11-26T14:00:02.044Z,81
2022-11-26T14:03:27.301Z,80
2022-11-26T14:06:52.570Z,81
2022-11-26T14:10:17.818Z,81
2022-11-26T14:13:43.014Z,81
2022-11-26T14:17:08.251Z,81
2022-11-26T14:20:33.484Z,82
2022-11-26T14:23:58.724Z,81
2022-11-26T14:27:23.980Z,82
2022-11-26T15:04:32.664Z,84
2022-11-26T15:07:57.957Z,84
2022-11-26T15:11:23.115Z,85
2022-11-26T15:14:48.347Z,85
2022-11-26T15:18:13.586Z,86
2022-11-26T15:21:38.817Z,85
2022-11-26T15:25:04.012Z,86
2022-11-26T15:28:29.792Z,86
2022-11-26T15:31:55.032Z,87
2022-11-26T15:35:20.309Z,87
2022-11-26T15:38:45.573Z,88
2022-11-26T15:42:10.750Z,88
2022-11-26T15:45:36.006Z,88
2022-11-26T15:49:01.191Z,88
2022-11-26T15:52:26.405Z,89
2022-11-26T15:55:51.694Z,89
2022-11-26T15:59:16.894Z,89
2022-11-26T16:02:42.196Z,89
2022-11-26T16:06:07.319Z,89
2022-11-26T16:09:32.534Z,89
2022-11-26T16:12:57.751Z,89
2022-11-26T16:16:23.083Z,89
2022-11-26T16:19:48.229Z,89
2022-11-26T16:23:13.401Z,89
2022-11-26T16:26:38.603Z,89
2022-11-26T16:30:03.812Z,89
2022-11-26T16:33:28.995Z,89
2022-11-26T16:36:54.235Z,89
2022-11-26T16:40:19.487Z,89
2022-11-26T16:43:44.697Z,89
2022-11-26T16:47:09.935Z,89
2022-11-26T16:50:35.151Z,89
2022-11-26T16:54:00.403Z,90
2022-11-26T16:57:25.603Z,90
2022-11-26T17:00:50.818Z,90
2022-11-26T17:04:16.052Z,90
2022-11-26T17:07:41.415Z,90
2022-11-26T17:11:06.689Z,90
2022-11-26T17:14:31.975Z,90
2022-11-26T17:17:57.270Z,90
2022-11-26T17:21:22.624Z,90
2022-11-26T17:24:47.925Z,90
2022-11-26T17:28:13.198Z,90
2022-11-26T17:31:38.485Z,90
2022-11-26T17:35:03.782Z,90
2022-11-26T17:38:29.057Z,89
2022-11-26T17:41:54.320Z,89
2022-11-26T17:45:19.593Z,89
2022-11-26T17:48:44.876Z,89
2022-11-26T17:52:10.151Z,88
2022-11-26T17:55:35.474Z,89
2022-11-26T17:59:00.650Z,89
2022-11-26T18:02:25.937Z,89
2022-11-26T18:05:51.119Z,89
2022-11-26T18:09:16.347Z,90
2022-11-26T18:12:41.677Z,89
2022-11-26T18:16:07.051Z,90
2022-11-26T18:19:32.383Z,90
2022-11-26T18:22:57.784Z,89
2022-11-26T18:26:23.085Z,89
2022-11-26T18:29:48.445Z,89
2022-11-26T18:33:13.731Z,89
2022-11-26T18:36:39.050Z,88
2022-11-26T18:40:04.366Z,87
2022-11-26T18:43:29.695Z,86
2022-11-26T18:46:55.043Z,85
2022-11-26T18:50:20.422Z,85
2022-11-26T18:53:45.807Z,84
2022-11-26T18:57:11.207Z,84
2022-11-26T19:00:36.561Z,85
2022-11-26T19:04:01.914Z,84
2022-11-26T19:07:27.232Z,84
2022-11-26T19:10:52.594Z,84
2022-11-26T19:14:17.978Z,84
2022-11-26T19:17:43.271Z,85
2022-11-26T19:21:08.690Z,85
2022-11-26T19:24:34.066Z,85
2022-11-26T19:28:03.557Z,85
2022-11-26T19:31:24.882Z,85
2022-11-26T19:34:50.133Z,86
2022-11-26T19:38:15.493Z,86
2022-11-26T19:41:40.796Z,87
2022-11-26T19:45:06.165Z,87
2022-11-26T19:48:31.551Z,87
2022-11-26T19:51:56.913Z,87
2022-11-26T19:55:22.311Z,88
2022-11-26T19:58:47.642Z,88
2022-11-26T20:02:13.063Z,88
2022-11-26T20:05:38.390Z,88
2022-11-26T20:09:03.702Z,88
2022-11-26T20:12:29.016Z,88
2022-11-26T20:15:54.348Z,88
2022-11-26T20:19:19.731Z,88
2022-11-26T20:22:45.016Z,89
2022-11-26T20:26:10.386Z,89
2022-11-26T20:29:35.731Z,88
2022-11-26T20:33:00.993Z,88
2022-11-26T20:36:26.411Z,86
2022-11-26T20:39:51.735Z,88
2022-11-26T20:43:17.075Z,88
2022-11-26T20:46:42.391Z,89
2022-11-26T20:50:07.628Z,90
2022-11-26T20:53:32.830Z,90
2022-11-26T20:56:58.022Z,90
2022-11-26T21:00:27.313Z,90
2022-11-26T21:03:48.494Z,90
2022-11-26T21:07:13.732Z,90
2022-11-26T21:10:38.906Z,89
2022-11-26T21:14:04.118Z,89
2022-11-26T21:17:29.381Z,90
2022-11-26T21:20:55.051Z,90
2022-11-26T21:24:20.272Z,90
2022-11-26T21:27:45.540Z,89
2022-11-26T21:31:10.876Z,89
2022-11-26T21:34:36.012Z,88
2022-11-26T21:38:01.273Z,89
2022-11-26T21:41:26.470Z,90
2022-11-26T21:44:51.690Z,90
2022-11-26T21:48:16.962Z,89
2022-11-26T21:51:42.229Z,89
2022-11-26T21:55:07.548Z,89
2022-11-26T21:58:32.770Z,89
2022-11-26T22:01:58.041Z,89
2022-11-26T22:05:23.184Z,89
2022-11-26T22:08:48.407Z,89
2022-11-26T22:12:13.648Z,88
2022-11-26T22:15:38.862Z,89
2022-11-26T22:19:04.036Z,89
2022-11-26T22:22:29.226Z,89
2022-11-26T22:25:54.450Z,89
2022-11-26T22:29:19.683Z,89
2022-11-26T22:32:44.857Z,89
2022-11-26T22:36:10.077Z,89
2022-11-26T22:39:35.279Z,89
2022-11-26T22:43:00.471Z,89
2022-11-26T22:46:25.726Z,89
2022-11-26T22:49:50.892Z,90
2022-11-26T22:53:16.103Z,89
2022-11-26T22:56:41.299Z,90
2022-11-26T23:00:06.514Z,90
2022-11-26T23:03:31.839Z,90
2022-11-26T23:06:56.955Z,90
2022-11-26T23:10:22.172Z,90
2022-11-26T23:13:47.368Z,89
2022-11-26T23:17:12.567Z,90
2022-11-26T23:20:37.803Z,89
2022-11-26T23:24:02.987Z,90
2022-11-26T23:27:28.184Z,89
2022-11-26T23:30:53.403Z,88
2022-11-26T23:34:18.591Z,88
2022-11-26T23:37:43.816Z,88
2022-11-26T23:41:09.009Z,88
2022-11-26T23:44:34.211Z,88
2022-11-26T23:47:59.388Z,89
2022-11-26T23:51:24.593Z,90
2022-11-26T23:54:49.818Z,90
2022-11-26T23:58:14.999Z,89
